• Join FlightAware (Why Join?)
  • Login
  • US Flag 
10:01PM EDT


 

Airport Tracker/Info


-or-


 

Live Flight TrackerFlight Track Log ✈ UAL119 ✈ 15-Apr-2013 ✈ KEWR - EDDF / FRA

Flight Track Log - Related Links

Times and Time Zones

All times are in EDT time to prevent confusion due to time zone crossing. See the UAL119 flight status page for this flight to view local times or setup timezone preferences in your user account.

Time Position Orientation Groundspeed Altitude Reporting Facility
EDT Latitude Longitude Course Direction KTS MPH feet Rate Location/Type
09:38PM 40.6540 -74.1840 197° South 157 181 1,300  Level FlightAware
09:38PM 40.6449 -74.1838 179° South 156 180 1,400 900 Climbing FlightAware ADS-B
09:38PM 40.6379 -74.1868 198° South 170 196 1,600 1,200 Climbing FlightAware ADS-B
09:38PM 40.6334 -74.1900 208° Southwest 179 206 1,700 1,500 Climbing FlightAware ADS-B
09:39PM 40.6160 -74.2142 227° Southwest 218 251 2,500 1,920 Climbing FlightAware ADS-B
09:39PM 40.6153 -74.2352 267° West 242 278 3,100 2,460 Climbing FlightAware ADS-B
09:39PM 40.6190 -74.2480 291° West 247 284 3,500 3,000 Climbing FlightAware ADS-B
09:39PM 40.6218 -74.2530 306° West 248 285 3,800 3,780 Climbing FlightAware ADS-B
09:39PM 40.6276 -74.2606 315° West 237 273 4,200 3,000 Climbing FlightAware ADS-B
09:39PM 40.6304 -74.2630 327° Northwest 252 290 4,300 2,400 Climbing FlightAware ADS-B
09:39PM 40.6322 -74.2643 331° Northwest 255 293 4,400 3,000 Climbing FlightAware ADS-B
09:40PM 40.6374 -74.2676 334° Northwest 259 298 4,600 2,460 Climbing FlightAware ADS-B
09:40PM 40.6465 -74.2707 346° North 261 300 4,900 1,980 Climbing FlightAware ADS-B
09:40PM 40.6628 -74.2702 North 279 321 5,300 1,560 Climbing FlightAware ADS-B
09:40PM 40.6698 -74.2678 15° North 284 327 5,400 1,380 Climbing FlightAware ADS-B
09:40PM 40.6794 -74.2626 22° Northeast 290 334 5,600 1,080 Climbing FlightAware ADS-B
09:40PM 40.6836 -74.2601 24° Northeast 291 335 5,600 540 Level FlightAware ADS-B
09:40PM 40.6925 -74.2542 27° Northeast 292 336 5,700  Climbing FlightAware ADS-B
09:41PM 40.7108 -74.2410 29° Northeast 292 336 5,600 -240 Descending FlightAware ADS-B
09:41PM 40.7231 -74.2316 30° Northeast 292 336 5,600  Level FlightAware ADS-B
09:41PM 40.7284 -74.2274 31° Northeast 289 333 5,600  Level FlightAware ADS-B
09:41PM 40.7373 -74.2209 29° Northeast 288 331 5,600  Level FlightAware ADS-B
09:41PM 40.7419 -74.2168 34° Northeast 288 331 5,600 540 Level FlightAware ADS-B
09:41PM 40.7493 -74.2090 39° Northeast 289 333 5,700 1,320 Climbing FlightAware ADS-B
09:41PM 40.7515 -74.2065 41° Northeast 291 335 5,800 2,220 Climbing FlightAware ADS-B
09:41PM 40.7574 -74.1989 44° Northeast 291 335 6,000 2,700 Climbing FlightAware ADS-B
09:41PM 40.7623 -74.1919 47° Northeast 289 333 6,300 3,300 Climbing FlightAware ADS-B
09:41PM 40.7653 -74.1873 49° Northeast 288 331 6,500 3,360 Climbing FlightAware ADS-B
09:42PM 40.7751 -74.1708 52° Northeast 287 330 7,200 3,600 Climbing FlightAware ADS-B
09:42PM 40.7781 -74.1658 52° Northeast 287 330 7,400 3,360 Climbing FlightAware ADS-B
09:42PM 40.7890 -74.1478 51° Northeast 291 335 8,100 3,000 Climbing FlightAware ADS-B
09:42PM 40.7908 -74.1445 54° Northeast 291 335 8,200 2,820 Climbing FlightAware ADS-B
09:42PM 40.8027 -74.1245 52° Northeast 294 338 8,900 2,760 Climbing FlightAware ADS-B
09:42PM 40.8039 -74.1224 53° Northeast 295 339 8,900 1,680 Level FlightAware ADS-B
09:42PM 40.8207 -74.0939 52° Northeast 306 352 9,500 1,560 Climbing FlightAware ADS-B
09:43PM 40.8230 -74.0901 51° Northeast 309 356 9,500 360 Level FlightAware ADS-B
09:43PM 40.8353 -74.0690 52° Northeast 319 367 9,600 300 Climbing FlightAware ADS-B
09:43PM 40.8406 -74.0599 52° Northeast 342 394 9,600  Level FlightAware ADS-B
09:43PM 40.8502 -74.0438 52° Northeast 356 410 9,600  Level FlightAware ADS-B
09:43PM 40.8678 -74.0144 52° Northeast 365 420 9,600  Level FlightAware ADS-B
09:43PM 40.8700 -74.0106 53° Northeast 364 419 9,600  Level FlightAware ADS-B
09:44PM 40.8868 -73.9823 52° Northeast 361 415 9,600  Level FlightAware ADS-B
09:44PM 40.8894 -73.9778 53° Northeast 362 417 9,600  Level FlightAware ADS-B
09:44PM 40.9023 -73.9559 52° Northeast 358 412 9,600  Level FlightAware ADS-B
09:44PM 40.9124 -73.9387 52° Northeast 359 413 9,600  Level FlightAware ADS-B
09:44PM 40.9176 -73.9299 52° Northeast 361 415 9,600 900 Level FlightAware ADS-B
09:44PM 40.9321 -73.9052 52° Northeast 360 414 9,900 2,700 Climbing FlightAware ADS-B
09:45PM 40.9641 -73.8510 52° Northeast 356 410 11,700 3,000 Climbing FlightAware ADS-B
09:45PM 40.9975 -73.7940 52° Northeast 362 417 13,200 2,640 Climbing FlightAware ADS-B
09:46PM 41.0349 -73.7301 52° Northeast 375 432 14,700 1,980 Climbing FlightAware ADS-B
09:47PM 41.0679 -73.6735 52° Northeast 394 453 15,400 1,680 Climbing FlightAware ADS-B
09:47PM 41.1101 -73.6014 52° Northeast 416 479 16,600 2,100 Climbing FlightAware ADS-B
09:48PM 41.1507 -73.5305 53° Northeast 425 489 17,900 2,040 Climbing FlightAware ADS-B
09:48PM 41.1848 -73.4613 57° Northeast 434 499 18,900 1,800 Climbing FlightAware ADS-B
09:49PM 41.2190 -73.3914 57° Northeast 444 511 19,800 1,860 Climbing FlightAware ADS-B
09:49PM 41.2543 -73.3202 57° Northeast 452 520 20,800 1,740 Climbing FlightAware ADS-B
09:50PM 41.2880 -73.2530 56° Northeast 459 528 21,700 1,800 Climbing FlightAware
09:50PM 41.3002 -73.2285 56° Northeast 461 531 22,000 2,640 Climbing FlightAware ADS-B
09:50PM 41.3366 -73.1559 56° Northeast 455 524 23,400 2,160 Climbing FlightAware ADS-B
09:51PM 41.3840 -73.0613 56° Northeast 460 529 24,600 1,800 Climbing FlightAware ADS-B
09:52PM 41.4262 -72.9766 56° Northeast 466 536 25,700 1,500 Climbing FlightAware ADS-B
09:53PM 41.4850 -72.8580 56° Northeast 477 549 26,800 1,380 Climbing FlightAware
09:53PM 41.5340 -72.7590 57° Northeast 482 555 27,800 1,440 Climbing FlightAware
09:54PM 41.5890 -72.6460 57° Northeast 487 560 28,900 1,620 Climbing FlightAware
09:55PM 41.6530 -72.5150 57° Northeast 483 556 30,500 1,860 Climbing FlightAware
09:55PM 41.6960 -72.4180 59° Northeast 477 549 31,700 1,800 Climbing FlightAware
09:56PM 41.7190 -72.3530 65° Northeast 488 562 32,300 1,080 Climbing FlightAware
09:57PM 41.7400 -72.2380 76° East 497 572 32,900 1,200 Climbing FlightAware
09:57PM 41.7640 -72.1150 75° East 494 568 33,900 1,260 Climbing FlightAware
09:58PM 41.7860 -72.0100 74° East 497 572 34,500 960 Climbing FlightAware
09:59PM 41.8150 -71.8770 74° East 496 571 35,300 900 Climbing FlightAware
09:59PM 41.8460 -71.7320 74° East 503 579 36,000 1,020 Climbing FlightAware
10:00PM 41.8680 -71.6130 76° East 502 578 36,800 720 Climbing FlightAware
10:01PM 41.8900 -71.4920 76° East 498 573 37,000 120 Climbing FlightAware
10:01PM 41.9150 -71.3550 76° East 493 567 37,000  Level FlightAware
10:02PM 41.9370 -71.2370 76° East 490 564 37,000  Level FlightAware
10:03PM 41.9600 -71.1060 77° East 489 563 37,000  Level FlightAware
10:04PM 41.9820 -70.9860 76° East 488 562 37,000  Level FlightAware
10:04PM 42.0020 -70.8740 76° East 487 560 37,000  Level FlightAware
10:05PM 42.0270 -70.7370 76° East 487 560 37,000  Level FlightAware
10:06PM 42.0470 -70.6210 77° East 487 560 37,000  Level FlightAware
10:06PM 42.0700 -70.4880 77° East 487 560 37,000  Level FlightAware
10:07PM 42.0900 -70.3750 77° East 486 559 37,000  Level FlightAware
10:08PM 42.1110 -70.2560 77° East 484 557 37,000  Level FlightAware
10:08PM 42.1340 -70.1180 77° East 483 556 37,000  Level FlightAware
10:09PM 42.1540 -70.0030 77° East 482 555 37,000  Level FlightAware
10:10PM 42.1720 -69.9000 77° East 481 554 37,000  Level FlightAware
10:13PM 42.2720 -69.2950 77° East 478 550 37,000  Level FlightAware
10:16PM 42.3400 -68.8720 78° East 474 545 37,000  Level FlightAware
10:17PM 42.3710 -68.6700 78° East 475 547 37,000  Level FlightAware
10:18PM 42.4050 -68.4530 78° East 475 547 37,000  Level FlightAware
10:20PM 42.4480 -68.1760 78° East 474 545 37,000  Level FlightAware
10:20PM 42.4670 -68.0510 78° East 473 544 37,000  Level FlightAware
10:21PM 42.4820 -67.9510 78° East 471 542 37,000  Level FlightAware
10:22PM 42.4990 -67.8330 79° East 471 542 37,000  Level FlightAware
10:22PM 42.5130 -67.7340 79° East 471 542 37,000  Level FlightAware
10:23PM 42.5370 -67.5760 78° East 470 541 37,000  Level FlightAware
10:24PM 42.5550 -67.4560 78° East 470 541 37,000  Level FlightAware
10:24PM 42.5690 -67.3580 79° East 470 541 37,000  Level FlightAware
10:25PM 42.5830 -67.2590 79° East 470 541 37,000  Level FlightAware
10:26PM 42.5970 -67.1610 79° East 470 541 37,000  Level FlightAware
10:27PM 42.6140 -67.0370 79° East 470 541 37,000  Level FlightAware
10:27PM 42.6290 -66.9390 78° East 470 541 37,000  Level FlightAware
10:28PM 42.6430 -66.8400 79° East 470 541 37,000  Level FlightAware
10:30PM 42.7710 -66.4510 66° East 469 540 37,000  Level FlightAware
10:32PM 42.8790 -66.0510 70° East 469 540 37,000  Level FlightAware
10:34PM 42.9870 -65.6490 70° East 471 542 37,000  Level FlightAware
10:37PM 43.0940 -65.2430 70° East 471 542 37,000  Level FlightAware
10:42PM 43.3050 -64.4230 70° East 476 548 37,000  Level FlightAware
10:42PM 43.3280 -64.3300 71° East 476 548 37,000  Level FlightAware
10:43PM 43.3590 -64.2080 71° East 476 548 37,000  Level FlightAware
10:44PM 43.3830 -64.1110 71° East 476 548 37,000  Level FlightAware
10:45PM 43.4080 -64.0140 70° East 476 548 37,000  Level FlightAware
10:45PM 43.4320 -63.9160 71° East 476 548 37,000  Level FlightAware
10:46PM 43.4560 -63.8190 71° East 476 548 37,000  Level FlightAware
10:47PM 43.4810 -63.7210 71° East 476 548 37,000  Level FlightAware
10:47PM 43.5110 -63.5990 71° East 476 548 37,000  Level FlightAware
10:48PM 43.5360 -63.5010 71° East 476 548 37,000  Level FlightAware
10:49PM 43.5600 -63.4040 71° East 476 548 37,000  Level FlightAware
10:49PM 43.5840 -63.3060 71° East 476 548 37,000  Level FlightAware
10:50PM 43.6150 -63.1840 71° East 476 548 37,000  Level FlightAware
10:51PM 43.6390 -63.0860 71° East 476 548 37,000  Level FlightAware
10:52PM 43.6640 -62.9880 71° East 476 548 37,000  Level FlightAware
10:52PM 43.7333 -62.6333 71° East 480 552 37,000  Level Gander Center
10:52PM 43.7500 -62.5500 74° East 480 552 37,000  Level Moncton Center
10:53PM 43.8000 -62.3833 67° East 470 541 37,000  Level Moncton Center
10:54PM 43.8333 -62.2000 76° East 470 541 37,000  Level Moncton Center
10:55PM 43.8500 -62.1167 74° East 470 541 37,000  Level Gander Center
10:55PM 43.8833 -62.0333 61° Northeast 470 541 37,000  Level Moncton Center
10:56PM 43.9000 -61.8667 82° East 470 541 37,000  Level Moncton Center
10:57PM 43.9500 -61.6833 69° East 470 541 37,000  Level Moncton Center
11:04PM 44.2080 -60.5540 69° East 476 548 37,000  Level FlightAware
11:05PM 44.2310 -60.4440 74° East 477 549 37,000  Level FlightAware
11:05PM 44.2630 -60.2980 73° East 479 551 37,000  Level FlightAware
11:06PM 44.2870 -60.1830 74° East 481 554 37,000  Level FlightAware
11:07PM 44.3150 -60.0480 74° East 482 555 37,000  Level FlightAware
11:07PM 44.3400 -59.9280 74° East 484 557 37,000  Level FlightAware
11:08PM 44.3640 -59.8080 74° East 486 559 37,000  Level FlightAware
11:09PM 44.3920 -59.6710 74° East 486 559 37,000  Level FlightAware
11:10PM 44.4170 -59.5490 74° East 485 558 37,000  Level FlightAware
11:10PM 44.4420 -59.4270 74° East 485 558 37,000  Level FlightAware
11:11PM 44.4680 -59.2970 74° East 484 557 37,000  Level FlightAware
11:12PM 44.4920 -59.1750 75° East 484 557 37,000  Level FlightAware
11:12PM 44.5160 -59.0540 74° East 485 558 37,000  Level FlightAware
11:13PM 44.5440 -58.9140 74° East 486 559 37,000  Level FlightAware
11:14PM 44.5670 -58.7930 75° East 484 557 37,000  Level FlightAware
11:14PM 44.5930 -58.6600 75° East 485 558 37,000  Level FlightAware
11:15PM 44.6170 -58.5380 75° East 485 558 37,000  Level FlightAware
11:16PM 44.6400 -58.4180 75° East 486 559 37,000  Level FlightAware
11:17PM 44.6660 -58.2780 75° East 486 559 37,000  Level FlightAware
11:17PM 44.6890 -58.1570 75° East 487 560 37,000  Level FlightAware
11:18PM 44.7140 -58.0220 75° East 486 559 37,000  Level FlightAware
11:19PM 44.7370 -57.9000 75° East 486 559 37,000  Level FlightAware
11:19PM 44.7630 -57.7590 75° East 484 557 37,000  Level FlightAware
11:20PM 44.7850 -57.6400 75° East 483 556 37,000  Level FlightAware
11:21PM 44.8070 -57.5160 76° East 482 555 37,000  Level FlightAware
11:21PM 44.8310 -57.3820 76° East 482 555 37,000  Level FlightAware
11:22PM 44.8530 -57.2600 76° East 481 554 37,000  Level FlightAware
11:23PM 44.8750 -57.1370 76° East 481 554 37,000  Level FlightAware
11:24PM 44.8990 -57.0030 76° East 479 551 37,000  Level FlightAware
11:24PM 44.9170 -56.8980 76° East 478 550 37,000  Level FlightAware
11:25PM 44.9440 -56.7430 76° East 476 548 37,000  Level FlightAware
11:26PM 44.9620 -56.6470 75° East 474 545 37,000  Level FlightAware
11:26PM 44.9850 -56.5300 74° East 473 544 37,000  Level FlightAware
11:27PM 45.0100 -56.4040 74° East 473 544 37,000  Level FlightAware
11:28PM 45.0310 -56.3030 74° East 473 544 37,000  Level FlightAware
11:28PM 45.0510 -56.2010 74° East 473 544 37,000  Level FlightAware
11:29PM 45.0720 -56.1000 74° East 473 544 37,000  Level FlightAware
11:30PM 45.0920 -55.9990 74° East 473 544 37,000  Level FlightAware
11:31PM 45.1180 -55.8720 74° East 473 544 37,000  Level FlightAware
11:31PM 45.1380 -55.7710 74° East 473 544 37,000  Level FlightAware
11:32PM 45.1590 -55.6690 74° East 473 544 37,000  Level FlightAware
11:33PM 45.1850 -55.5420 74° East 473 544 37,000  Level FlightAware
11:33PM 45.2050 -55.4410 74° East 473 544 37,000  Level FlightAware
11:34PM 45.2260 -55.3390 74° East 473 544 37,000  Level FlightAware
11:35PM 45.2640 -54.9540 82° East 473 544 37,000  Level FlightAware
11:36PM 45.2830 -54.8380 77° East 472 543 37,000  Level FlightAware
11:37PM 45.3120 -54.6670 76° East 472 543 37,000  Level FlightAware
11:37PM 45.3350 -54.5250 77° East 472 543 37,000  Level FlightAware
11:38PM 45.3570 -54.3900 77° East 472 543 37,000  Level FlightAware
11:39PM 45.3770 -54.2690 77° East 472 543 37,000  Level FlightAware
11:39PM 45.3990 -54.1330 77° East 472 543 37,000  Level FlightAware
11:40PM 45.4160 -54.0240 77° East 472 543 37,000  Level FlightAware
11:41PM 45.4330 -53.9210 77° East 472 543 37,000  Level FlightAware
11:41PM 45.4500 -53.8180 77° East 472 543 37,000  Level FlightAware
11:42PM 45.4660 -53.7150 77° East 472 543 37,000  Level FlightAware
11:43PM 45.4870 -53.5860 77° East 472 543 37,000  Level FlightAware
11:44PM 45.5040 -53.4830 77° East 472 543 37,000  Level FlightAware
11:44PM 45.5210 -53.3790 77° East 472 543 37,000  Level FlightAware
11:45PM 45.5370 -53.2760 77° East 472 543 37,000  Level FlightAware
11:46PM 45.5580 -53.1470 77° East 472 543 37,000  Level FlightAware
11:46PM 45.5750 -53.0440 77° East 472 543 37,000  Level FlightAware
11:47PM 45.5920 -52.9400 77° East 472 543 37,000  Level FlightAware
11:48PM 45.6080 -52.8370 77° East 472 543 37,000  Level FlightAware
11:48PM 45.6250 -52.7340 77° East 472 543 37,000  Level FlightAware
11:49PM 45.6420 -52.6300 77° East 472 543 37,000 1,020 Level FlightAware
11:49PM 45.6667 -52.2500 77° East 490 564 38,000 1,260 Climbing Moncton Center
11:50PM 45.6833 -52.1667 74° East 480 552 38,000  Level Gander Center
11:50PM 45.7000 -52.0833 74° East 480 552 38,000  Level Moncton Center
11:51PM 45.7333 -51.8833 77° East 480 552 38,000  Level Moncton Center
11:52PM 45.7333 -51.8000 90° East 480 552 38,000  Level Gander Center
11:53PM 45.7667 -51.6000 76° East 480 552 38,000  Level Gander Center
11:53PM 45.7833 -51.5000 77° East 480 552 38,000  Level Moncton Center
11:54PM 45.8000 -51.3333 82° East 480 552 38,000  Level Moncton Center
11:55PM 45.8167 -51.1333 83° East 490 564 38,000  Level Moncton Center
11:56PM 45.8500 -51.0333 64° Northeast 480 552 38,000  Level Gander Center
11:57PM 45.8667 -50.8333 83° East 480 552 38,000  Level Gander Center
11:58PM 45.9000 -50.6500 75° East 480 552 38,000  Level Gander Center
11:59PM 45.9167 -50.4667 82° East 490 564 38,000  Level Gander Center
12:00AM 45.9333 -50.2667 83° East 480 552 38,000  Level Gander Center
12:01AM 45.9500 -50.1000 82° East 480 552 38,000  Level Gander Center
12:02AM 45.9833 -49.9000 76° East 480 552 38,000  Level Gander Center
12:03AM 46.0333 -49.7167 68° East 480 552 38,000  Level Gander Center
12:04AM 46.0833 -49.5333 68° East 480 552 38,000  Level Gander Center
12:05AM 46.1333 -49.3500 68° East 480 552 38,000  Level Gander Center
12:06AM 46.1500 -49.2333 78° East 480 552 38,000  Level Gander Center
12:07AM 46.0000 -50.0000 70° East 482 555 38,000  Level ETMS Enhanced Traffic Management System
12:07AM 46.2000 -48.9833 70° East 480 552 38,000  Level Gander Center
12:08AM 46.2333 -48.8167 74° East 480 552 38,000  Level Gander Center
12:09AM 46.2833 -48.6167 70° East 490 564 38,000  Level Gander Center
12:10AM 46.3167 -48.4833 70° East 480 552 38,000  Level Gander Center
12:11AM 46.3667 -48.3333 64° Northeast 490 564 38,000  Level Gander Center
12:12AM 46.4000 -48.1167 77° East 490 564 38,000  Level Gander Center
12:12AM 46.4167 -48.0667 64° Northeast 490 564 38,000  Level Gander Center
12:13AM 46.4667 -47.8833 68° East 480 552 38,000  Level Gander Center
12:14AM 46.4833 -47.7667 78° East 490 564 38,000  Level Gander Center
12:15AM 46.5333 -47.5833 68° East 480 552 38,000  Level Gander Center
12:15AM 46.5333 -47.5333 90° East 480 552 38,000  Level Gander Center
12:16AM 46.5833 -47.3500 68° East 480 552 38,000  Level Gander Center
12:17AM 46.6167 -47.1667 75° East 480 552 38,000  Level Gander Center
12:18AM 46.6667 -46.9667 70° East 470 541 38,000  Level Gander Center
12:19AM 46.7167 -46.7833 68° East 490 564 38,000  Level Gander Center
12:21AM 46.7863 -46.4868 71° East  Level FlightAware Approximate
12:28AM 47.0768 -45.1776 73° East  Level FlightAware Approximate
12:29AM 47.1152 -44.9887 73° East  Level FlightAware Approximate
12:30AM 47.1533 -44.7994 73° East  Level FlightAware Approximate
12:31AM 47.1911 -44.6099 74° East  Level FlightAware Approximate
12:32AM 47.2286 -44.4202 74° East  Level FlightAware Approximate
12:33AM 47.2657 -44.2301 74° East  Level FlightAware Approximate
12:34AM 47.3026 -44.0398 74° East  Level FlightAware Approximate
12:35AM 47.3391 -43.8492 74° East  Level FlightAware Approximate
12:36AM 47.3753 -43.6584 74° East  Level FlightAware Approximate
12:37AM 47.4112 -43.4673 74° East  Level FlightAware Approximate
12:38AM 47.4468 -43.2760 75° East  Level FlightAware Approximate
12:39AM 47.4821 -43.0844 75° East  Level FlightAware Approximate
12:40AM 47.5170 -42.8925 75° East  Level FlightAware Approximate
12:41AM 47.5516 -42.7004 75° East  Level FlightAware Approximate
12:42AM 47.5859 -42.5080 75° East  Level FlightAware Approximate
12:43AM 47.6199 -42.3154 75° East  Level FlightAware Approximate
12:44AM 47.6536 -42.1225 75° East  Level FlightAware Approximate
12:45AM 47.6869 -41.9294 76° East  Level FlightAware Approximate
12:46AM 47.7199 -41.7360 76° East  Level FlightAware Approximate
12:47AM 47.7526 -41.5424 76° East  Level FlightAware Approximate
12:48AM 47.7850 -41.3486 76° East  Level FlightAware Approximate
12:49AM 47.8170 -41.1545 76° East  Level FlightAware Approximate
12:50AM 47.8487 -40.9602 76° East  Level FlightAware Approximate
12:51AM 47.8801 -40.7656 76° East  Level FlightAware Approximate
12:52AM 47.9111 -40.5708 77° East  Level FlightAware Approximate
12:53AM 47.9419 -40.3758 77° East  Level FlightAware Approximate
12:54AM 47.9722 -40.1805 77° East  Level FlightAware Approximate
12:55AM 48.0036 -39.9856 69° East  Level FlightAware Approximate
12:56AM 48.0509 -39.7977 69° East  Level FlightAware Approximate
12:57AM 48.0979 -39.6095 69° East  Level FlightAware Approximate
12:57AM 48.0000 -40.0000 69° East 513 590 38,000  Level ETMS Enhanced Traffic Management System
12:58AM 48.1445 -39.4209 70° East  Level FlightAware Approximate
12:59AM 48.1908 -39.2320 70° East  Level FlightAware Approximate
01:00AM 48.2368 -39.0427 70° East  Level FlightAware Approximate
01:01AM 48.2826 -38.8531 70° East  Level FlightAware Approximate
01:02AM 48.3279 -38.6632 70° East  Level FlightAware Approximate
01:03AM 48.3923 -38.3909 71° East 513 590 38,000  Level FlightAware Transoceanic
01:04AM 48.4398 -38.1880 71° East 513 590 38,000  Level FlightAware Transoceanic
01:05AM 48.4869 -37.9848 71° East 513 590 38,000  Level FlightAware Transoceanic
01:06AM 48.5336 -37.7812 71° East 513 590 38,000  Level FlightAware Transoceanic
01:07AM 48.5800 -37.5772 71° East 513 590 38,000  Level FlightAware Transoceanic
01:08AM 48.6260 -37.3728 71° East 513 590 38,000  Level FlightAware Transoceanic
01:09AM 48.6717 -37.1681 71° East 513 590 38,000  Level FlightAware Transoceanic
01:10AM 48.7170 -36.9630 72° East 513 590 38,000  Level FlightAware Transoceanic
01:11AM 48.7619 -36.7575 72° East 513 590 38,000  Level FlightAware Transoceanic
01:12AM 48.8065 -36.5517 72° East 513 590 38,000  Level FlightAware Transoceanic
01:13AM 48.8507 -36.3454 72° East 513 590 38,000  Level FlightAware Transoceanic
01:14AM 48.8945 -36.1389 72° East 513 590 38,000  Level FlightAware Transoceanic
01:15AM 48.9380 -35.9319 72° East 513 590 38,000  Level FlightAware Transoceanic
01:16AM 48.9811 -35.7247 73° East 513 590 38,000  Level FlightAware Transoceanic
01:17AM 49.0238 -35.5170 73° East 513 590 38,000  Level FlightAware Transoceanic
01:18AM 49.0661 -35.3090 73° East 513 590 38,000  Level FlightAware Transoceanic
01:19AM 49.1081 -35.1007 73° East 513 590 38,000  Level FlightAware Transoceanic
01:20AM 49.1497 -34.8919 73° East 513 590 38,000  Level FlightAware Transoceanic
01:21AM 49.1909 -34.6829 73° East 513 590 38,000  Level FlightAware Transoceanic
01:22AM 49.2317 -34.4735 73° East 513 590 38,000  Level FlightAware Transoceanic
01:23AM 49.2722 -34.2637 74° East 513 590 38,000  Level FlightAware Transoceanic
01:24AM 49.3123 -34.0537 74° East 513 590 38,000  Level FlightAware Transoceanic
01:25AM 49.3520 -33.8432 74° East 513 590 38,000  Level FlightAware Transoceanic
01:26AM 49.3913 -33.6325 74° East 513 590 38,000  Level FlightAware Transoceanic
01:27AM 49.4302 -33.4214 74° East 513 590 38,000  Level FlightAware Transoceanic
01:28AM 49.4688 -33.2099 74° East 513 590 38,000  Level FlightAware Transoceanic
01:29AM 49.5069 -32.9981 75° East 513 590 38,000  Level FlightAware Transoceanic
01:30AM 49.5447 -32.7860 75° East 513 590 38,000  Level FlightAware Transoceanic
01:31AM 49.5821 -32.5736 75° East 513 590 38,000  Level FlightAware Transoceanic
01:32AM 49.6191 -32.3609 75° East 513 590 38,000  Level FlightAware Transoceanic
01:33AM 49.6557 -32.1478 75° East 513 590 38,000  Level FlightAware Transoceanic
01:34AM 49.6919 -31.9344 75° East 513 590 38,000  Level FlightAware Transoceanic
01:35AM 49.7277 -31.7207 76° East 513 590 38,000  Level FlightAware Transoceanic
01:36AM 49.7631 -31.5067 76° East 513 590 38,000  Level FlightAware Transoceanic
01:37AM 49.7982 -31.2924 76° East 513 590 38,000  Level FlightAware Transoceanic
01:38AM 49.8328 -31.0777 76° East 513 590 38,000  Level FlightAware Transoceanic
01:39AM 49.8670 -30.8628 76° East 513 590 38,000  Level FlightAware Transoceanic
01:40AM 49.9009 -30.6475 76° East 513 590 38,000  Level FlightAware Transoceanic
01:41AM 49.9343 -30.4320 77° East 513 590 38,000  Level FlightAware Transoceanic
01:42AM 49.9674 -30.2161 77° East 513 590 38,000  Level FlightAware Transoceanic
01:43AM 49.9981 -30.0129 77° East  Level FlightAware Approximate
01:44AM 50.0284 -29.8094 77° East  Level FlightAware Approximate
01:45AM 50.0258 -29.8221 77° East  Level FlightAware Approximate
01:46AM 50.0550 -29.6180 77° East  Level FlightAware Approximate
01:46AM 50.0000 -30.0000 77° East 526 605 38,000  Level ETMS Enhanced Traffic Management System
01:47AM 50.0838 -29.4137 78° East  Level FlightAware Approximate
01:48AM 50.1123 -29.2092 78° East  Level FlightAware Approximate
01:49AM 50.1404 -29.0045 78° East  Level FlightAware Approximate
01:50AM 50.1682 -28.7995 78° East  Level FlightAware Approximate
01:51AM 50.1956 -28.5942 78° East  Level FlightAware Approximate
01:52AM 50.2737 -27.9917 79° East 526 605 38,000  Level FlightAware Transoceanic
01:53AM 50.3020 -27.7671 79° East 526 605 38,000  Level FlightAware Transoceanic
01:54AM 50.3298 -27.5423 79° East 526 605 38,000  Level FlightAware Transoceanic
01:55AM 50.3572 -27.3173 79° East 526 605 38,000  Level FlightAware Transoceanic
01:56AM 50.3842 -27.0919 79° East 526 605 38,000  Level FlightAware Transoceanic
01:57AM 50.4107 -26.8664 80° East 526 605 38,000  Level FlightAware Transoceanic
01:58AM 50.4368 -26.6406 80° East 526 605 38,000  Level FlightAware Transoceanic
01:59AM 50.4625 -26.4145 80° East 526 605 38,000  Level FlightAware Transoceanic
02:00AM 50.4877 -26.1882 80° East 526 605 38,000  Level FlightAware Transoceanic
02:01AM 50.5125 -25.9616 80° East 526 605 38,000  Level FlightAware Transoceanic
02:02AM 50.5368 -25.7348 81° East 526 605 38,000  Level FlightAware Transoceanic
02:03AM 50.5607 -25.5078 81° East 526 605 38,000  Level FlightAware Transoceanic
02:04AM 50.5841 -25.2805 81° East 526 605 38,000  Level FlightAware Transoceanic
02:05AM 50.6072 -25.0531 81° East 526 605 38,000  Level FlightAware Transoceanic
02:06AM 50.6297 -24.8254 81° East 526 605 38,000  Level FlightAware Transoceanic
02:07AM 50.6519 -24.5975 81° East 526 605 38,000  Level FlightAware Transoceanic
02:08AM 50.6735 -24.3693 82° East 526 605 38,000  Level FlightAware Transoceanic
02:09AM 50.6948 -24.1410 82° East 526 605 38,000  Level FlightAware Transoceanic
02:10AM 50.7156 -23.9125 82° East 526 605 38,000  Level FlightAware Transoceanic
02:11AM 50.7359 -23.6837 82° East 526 605 38,000  Level FlightAware Transoceanic
02:12AM 50.7558 -23.4548 82° East 526 605 38,000  Level FlightAware Transoceanic
02:13AM 50.7752 -23.2257 82° East 526 605 38,000  Level FlightAware Transoceanic
02:14AM 50.7942 -22.9963 83° East 526 605 38,000  Level FlightAware Transoceanic
02:15AM 50.8128 -22.7668 83° East 526 605 38,000  Level FlightAware Transoceanic
02:16AM 50.8309 -22.5372 83° East 526 605 38,000  Level FlightAware Transoceanic
02:17AM 50.8485 -22.3073 83° East 526 605 38,000  Level FlightAware Transoceanic
02:18AM 50.8657 -22.0773 83° East 526 605 38,000  Level FlightAware Transoceanic
02:19AM 50.8824 -21.8471 84° East 526 605 38,000  Level FlightAware Transoceanic
02:20AM 50.8987 -21.6167 84° East 526 605 38,000  Level FlightAware Transoceanic
02:21AM 50.9146 -21.3862 84° East 526 605 38,000  Level FlightAware Transoceanic
02:22AM 50.9299 -21.1555 84° East 526 605 38,000  Level FlightAware Transoceanic
02:23AM 50.9449 -20.9247 84° East 526 605 38,000  Level FlightAware Transoceanic
02:24AM 50.9593 -20.6937 84° East 526 605 38,000  Level FlightAware Transoceanic
02:25AM 50.9733 -20.4626 85° East 526 605 38,000  Level FlightAware Transoceanic
02:26AM 50.9869 -20.2314 85° East 526 605 38,000  Level FlightAware Transoceanic
02:27AM 50.9989 -20.0189 85° East  Level FlightAware Approximate
02:28AM 51.0107 -19.8064 85° East  Level FlightAware Approximate
02:29AM 51.0198 -19.8275 80° East  Level FlightAware Approximate
02:30AM 51.0436 -19.6175 80° East  Level FlightAware Approximate
02:31AM 51.0670 -19.4071 80° East  Level FlightAware Approximate
02:32AM 51.0901 -19.1966 80° East  Level FlightAware Approximate
02:33AM 51.1127 -18.9859 80° East  Level FlightAware Approximate
02:34AM 51.1350 -18.7750 80° East  Level FlightAware Approximate
02:35AM 51.1569 -18.5638 81° East  Level FlightAware Approximate
02:36AM 51.1784 -18.3525 81° East  Level FlightAware Approximate
02:37AM 51.1996 -18.1410 81° East  Level FlightAware Approximate
02:38AM 51.2203 -17.9293 81° East  Level FlightAware Approximate
02:39AM 51.2407 -17.7173 81° East  Level FlightAware Approximate
02:40AM 51.2607 -17.5052 81° East  Level FlightAware Approximate
02:41AM 51.2803 -17.2930 82° East  Level FlightAware Approximate
02:42AM 51.2995 -17.0805 82° East  Level FlightAware Approximate
02:43AM 51.3183 -16.8679 82° East  Level FlightAware Approximate
02:44AM 51.3368 -16.6551 82° East  Level FlightAware Approximate
02:45AM 51.3548 -16.4421 82° East  Level FlightAware Approximate
02:46AM 51.3725 -16.2289 82° East  Level FlightAware Approximate
02:47AM 51.3898 -16.0156 83° East  Level FlightAware Approximate
02:48AM 51.4067 -15.8022 83° East  Level FlightAware Approximate
02:49AM 51.4232 -15.5885 83° East  Level FlightAware Approximate
02:50AM 51.4394 -15.3748 83° East  Level FlightAware Approximate
02:51AM 51.4551 -15.1608 83° East  Level FlightAware Approximate
02:52AM 51.4697 -14.9466 85° East  Level FlightAware Approximate
02:53AM 51.4816 -14.7320 85° East  Level FlightAware Approximate
02:54AM 51.4968 -14.5178 83° East  Level FlightAware Approximate
02:55AM 51.5123 -14.3035 83° East  Level FlightAware Approximate
02:56AM 51.5274 -14.0891 83° East  Level FlightAware Approximate
02:57AM 51.5421 -13.8746 84° East  Level FlightAware Approximate
02:58AM 51.5564 -13.6600 84° East  Level FlightAware Approximate
02:59AM 51.5704 -13.4452 84° East  Level FlightAware Approximate
02:59AM 51.1890 -12.7180 84° East 539 620 39,000  Level FlightAware
02:59AM 51.2040 -12.5910 79° East 539 620 39,000  Level FlightAware
03:00AM 51.2250 -12.4250 79° East 539 620 39,000  Level FlightAware
03:01AM 51.2410 -12.2920 79° East 539 620 39,000  Level FlightAware
03:01AM 51.2570 -12.1590 79° East 539 620 39,000  Level FlightAware
03:02AM 51.2730 -12.0260 79° East 539 620 39,000  Level FlightAware
03:03AM 51.2930 -11.8600 79° East 539 620 39,000  Level FlightAware
03:04AM 51.3090 -11.7270 79° East 539 620 39,000  Level FlightAware
03:04AM 51.3500 -11.3980 79° East 559 643 39,000  Level FlightAware
03:05AM 51.3630 -11.2870 79° East 560 644 39,000  Level FlightAware
03:05AM 51.3880 -11.0730 79° East 560 644 39,000  Level FlightAware
03:06AM 51.4110 -10.8610 80° East 559 643 39,000  Level FlightAware
03:07AM 51.4300 -10.6930 80° East 558 642 39,000  Level FlightAware
03:08AM 51.4480 -10.5330 80° East 558 642 39,000  Level FlightAware
03:08AM 51.4670 -10.3530 80° East 558 642 39,000  Level FlightAware
03:09AM 51.4820 -10.2080 81° East 558 642 39,000  Level FlightAware
03:10AM 51.5070 -9.9770 80° East 557 641 39,000  Level FlightAware
03:10AM 51.5190 -9.8560 81° East 556 640 39,000  Level FlightAware
03:11AM 51.5410 -9.6460 80° East 556 640 39,000  Level FlightAware
03:12AM 51.5570 -9.4770 81° East 553 636 39,000  Level FlightAware
03:13AM 51.5750 -9.3010 81° East 552 635 39,000  Level FlightAware
03:13AM 51.5900 -9.1460 81° East 551 634 39,000 -1,380 Level FlightAware
03:14AM 51.5827 -9.0001 81° East 472 543 37,400  Descending FlightAware UK
03:14AM 51.6050 -8.9890 81° East 550 633 39,000  Climbing FlightAware
03:14AM 51.5917 -8.9035 81° East 472 543 37,400 -2,880 Descending FlightAware UK
03:15AM 51.5982 -8.8310 82° East 472 543 37,400  Level FlightAware UK
03:15AM 51.6048 -8.7587 82° East 468 539 37,400  Level FlightAware UK
03:15AM 51.6115 -8.6865 81° East 470 541 37,400 4,140 Level FlightAware UK
03:15AM 51.6310 -8.7060 81° East 548 631 39,000  Climbing FlightAware
03:16AM 51.6202 -8.5903 81° East 468 539 37,400 -2,640 Descending FlightAware UK
03:16AM 51.6265 -8.5182 82° East 464 534 37,400 4,560 Level FlightAware UK
03:16AM 51.6480 -8.5220 82° East 547 629 39,000  Climbing FlightAware
03:16AM 51.6329 -8.4462 82° East 466 536 37,400 -2,940 Descending FlightAware UK
03:17AM 51.6391 -8.3740 82° East 466 536 37,400 3,180 Level FlightAware UK
03:17AM 51.6650 -8.3320 82° East 547 629 39,000  Climbing FlightAware
03:17AM 51.6494 -8.2537 82° East 466 536 37,400 -2,700 Descending FlightAware UK
03:17AM 51.6558 -8.1808 82° East 466 536 37,400 4,320 Level FlightAware UK
03:17AM 51.6780 -8.1830 82° East 546 628 39,000  Climbing FlightAware
03:18AM 51.6643 -8.0847 82° East 468 539 37,400 -2,580 Descending FlightAware UK
03:18AM 51.6705 -8.0126 82° East 468 539 37,400 4,800 Level FlightAware UK
03:18AM 51.6940 -8.0110 82° East 546 628 39,000  Climbing FlightAware
03:18AM 51.6764 -7.9405 82° East 466 536 37,400 -2,880 Descending FlightAware UK
03:19AM 51.6822 -7.8684 83° East 464 534 37,400 3,300 Level FlightAware UK
03:19AM 51.7080 -7.8380 83° East 546 628 39,000  Climbing FlightAware
03:19AM 51.6919 -7.7480 83° East 468 539 37,400  Descending FlightAware UK
03:19AM 51.7180 -7.7230 83° East 545 627 39,000  Climbing FlightAware
03:19AM 51.6977 -7.6758 83° East 468 539 37,400 -5,100 Descending FlightAware UK
03:20AM 51.7016 -7.6277 83° East 468 539 37,400  Level FlightAware UK
03:20AM 51.7074 -7.5555 83° East 466 536 37,400 3,660 Level FlightAware UK
03:20AM 51.7330 -7.5390 83° East 545 627 39,000  Climbing FlightAware
03:20AM 51.7152 -7.4591 83° East 468 539 37,400 -2,880 Descending FlightAware UK
03:21AM 51.7208 -7.3868 83° East 470 541 37,400 2,820 Level FlightAware UK
03:21AM 51.7500 -7.3300 83° East 544 626 39,000  Climbing FlightAware
03:21AM 51.7316 -7.2425 83° East 472 543 37,400 -2,580 Descending FlightAware UK
03:22AM 51.7369 -7.1705 83° East 470 541 37,400 4,800 Level FlightAware UK
03:22AM 51.7630 -7.1680 83° East 543 625 39,000  Climbing FlightAware
03:22AM 51.7428 -7.0985 83° East 470 541 37,400 -2,880 Descending FlightAware UK
03:22AM 51.7485 -7.0259 83° East 468 539 37,400 3,300 Level FlightAware UK
03:22AM 51.7760 -6.9910 83° East 543 625 39,000  Climbing FlightAware
03:23AM 51.7575 -6.9061 83° East 466 536 37,400 -2,640 Descending FlightAware UK
03:23AM 51.7628 -6.8342 83° East 468 539 37,400 4,560 Level FlightAware UK
03:23AM 51.7890 -6.8310 83° East 543 625 39,000  Climbing FlightAware
03:23AM 51.7681 -6.7622 83° East 470 541 37,400 -2,940 Descending FlightAware UK
03:24AM 51.7733 -6.6901 83° East 470 541 37,400 3,180 Level FlightAware UK
03:24AM 51.8020 -6.6450 83° East 542 624 39,000  Climbing FlightAware
03:24AM 51.7801 -6.5697 83° East 470 541 37,400 -2,700 Descending FlightAware UK
03:24AM 51.7783 -6.4976 92° East 468 539 37,400 4,320 Level FlightAware UK
03:24AM 51.8040 -6.4840 92° East 538 619 39,000  Climbing FlightAware
03:25AM 51.7760 -6.4019 92° East 468 539 37,400 -2,580 Descending FlightAware UK
03:25AM 51.7735 -6.3305 93° East 468 539 37,400 4,800 Level FlightAware UK
03:25AM 51.8000 -6.3260 93° East 536 617 39,000  Climbing FlightAware
03:25AM 51.7706 -6.2595 93° East 468 539 37,400 -2,880 Descending FlightAware UK
03:26AM 51.7680 -6.1882 93° East 466 536 37,400 3,300 Level FlightAware UK
03:26AM 51.7930 -6.1490 93° East 535 616 39,000  Climbing FlightAware
03:26AM 51.7632 -6.0694 93° East 470 541 37,400 -2,640 Descending FlightAware UK
03:26AM 51.7603 -5.9980 94° East 470 541 37,400 4,560 Level FlightAware UK
03:26AM 51.7870 -5.9900 94° East 535 616 39,000  Climbing FlightAware
03:27AM 51.7572 -5.9258 94° East 468 539 37,400 -2,940 Descending FlightAware UK
03:27AM 51.7543 -5.8544 94° East 470 541 37,400 3,180 Level FlightAware UK
03:27AM 51.7800 -5.8130 94° East 535 616 39,000  Climbing FlightAware
03:28AM 51.7493 -5.7353 94° East 468 539 37,400 -2,700 Descending FlightAware UK
03:28AM 51.7463 -5.6640 94° East 466 536 37,400 4,320 Level FlightAware UK
03:28AM 51.7730 -5.6510 94° East 534 615 39,000  Climbing FlightAware
03:28AM 51.7423 -5.5691 94° East 468 539 37,400 -2,580 Descending FlightAware UK
03:29AM 51.7394 -5.4981 94° East 468 539 37,400 3,840 Level FlightAware UK
03:29AM 51.7660 -5.4780 94° East 534 615 39,000  Climbing FlightAware
03:29AM 51.7355 -5.4033 94° East 468 539 37,400 -2,760 Descending FlightAware UK
03:29AM 51.7323 -5.3322 94° East 468 539 37,400 4,140 Level FlightAware UK
03:29AM 51.7590 -5.3170 94° East 533 613 39,000  Climbing FlightAware
03:30AM 51.7278 -5.2374 94° East 466 536 37,400 -2,640 Descending FlightAware UK
03:30AM 51.7245 -5.1663 94° East 464 534 37,400 3,660 Level FlightAware UK
03:30AM 51.7510 -5.1350 94° East 532 612 39,000  Climbing FlightAware
03:30AM 51.7201 -5.0710 94° East 466 536 37,400 -2,880 Descending FlightAware UK
03:31AM 51.7169 -5.0002 94° East 466 536 37,400 5,040 Level FlightAware UK
03:31AM 51.7450 -5.0010 94° East 532 612 39,000  Climbing FlightAware
03:31AM 51.7136 -4.9292 94° East 466 536 37,400 -2,760 Descending FlightAware UK
03:31AM 51.7101 -4.8583 95° East 466 536 37,400 3,420 Level FlightAware UK
03:31AM 51.7360 -4.8220 95° East 533 613 39,000  Climbing FlightAware
03:32AM 51.7039 -4.7397 95° East 466 536 37,400 -2,580 Descending FlightAware UK
03:32AM 51.7002 -4.6683 95° East 466 536 37,400 4,800 Level FlightAware UK
03:32AM 51.7280 -4.6600 95° East 532 612 39,000  Climbing FlightAware
03:32AM 51.6965 -4.5971 95° East 466 536 37,400 -2,880 Descending FlightAware UK
03:33AM 51.6930 -4.5259 95° East 464 534 37,400 3,300 Level FlightAware UK
03:33AM 51.7190 -4.4860 95° East 533 613 39,000  Climbing FlightAware
03:33AM 51.6832 -4.3353 95° East 468 539 37,400  Descending FlightAware UK
03:33AM 51.7100 -4.3280 95° East 533 613 39,000  Climbing FlightAware
03:34AM 51.6793 -4.2643 95° East 466 536 37,400 -2,880 Descending FlightAware UK
03:34AM 51.6754 -4.1933 95° East 468 539 37,400 3,300 Level FlightAware UK
03:34AM 51.7010 -4.1520 95° East 533 613 39,000  Climbing FlightAware
03:35AM 51.6688 -4.0751 95° East 470 541 37,400  Descending FlightAware UK
03:35AM 51.6920 -3.9900 95° East 532 612 39,000 2,400 Climbing FlightAware
03:35AM 51.6871 -3.9098 96° East 533 613 39,000 -2,520 Level FlightAware ADS-B
03:36AM 51.6556 -3.8383 96° East 466 536 37,400  Descending FlightAware UK
03:36AM 51.6793 -3.7792 96° East 532 612 39,000  Climbing FlightAware ADS-B
03:36AM 51.6472 -3.6967 96° East 466 536 37,400  Descending FlightAware UK
03:36AM 51.6718 -3.6518 96° East 531 611 39,000  Climbing FlightAware ADS-B
03:37AM 51.6415 -3.6025 96° East 466 536 37,400  Descending FlightAware UK
03:37AM 51.6635 -3.5159 96° East 532 612 39,000  Climbing FlightAware ADS-B
03:37AM 51.6330 -3.4612 96° East 464 534 37,400  Descending FlightAware UK
03:37AM 51.6560 -3.3948 96° East 532 612 39,000  Climbing FlightAware ADS-B
03:38AM 51.6256 -3.3425 96° East 468 539 37,400  Descending FlightAware UK
03:38AM 51.6483 -3.2738 96° East 532 612 39,000  Climbing FlightAware ADS-B
03:38AM 51.6168 -3.2011 96° East 468 539 37,400  Descending FlightAware UK
03:38AM 51.6405 -3.1547 96° East 531 611 39,000  Climbing FlightAware ADS-B
03:39AM 51.6092 -3.0836 96° East 464 534 37,400  Descending FlightAware UK
03:39AM 51.6326 -3.0331 96° East 532 612 39,000 2,280 Climbing FlightAware ADS-B
03:39AM 51.6246 -2.9124 96° East 530 610 39,000  Level FlightAware ADS-B
03:40AM 51.6165 -2.7936 96° East 530 610 39,000 -2,040 Level FlightAware ADS-B
03:40AM 51.5859 -2.7299 96° East 466 536 37,400  Descending FlightAware UK
03:40AM 51.6080 -2.6695 96° East 529 609 39,000  Climbing FlightAware ADS-B
03:41AM 51.5779 -2.6121 96° East 464 534 37,400  Descending FlightAware UK
03:41AM 51.5995 -2.5501 96° East 529 609 39,000  Climbing FlightAware ADS-B
03:41AM 51.5700 -2.4959 96° East 462 532 37,400  Descending FlightAware UK
03:42AM 51.5906 -2.4244 96° East 531 611 39,000 1,800 Climbing FlightAware ADS-B
03:42AM 51.5808 -2.2893 97° East 531 611 39,000 -1,740 Level FlightAware ADS-B
03:42AM 51.5500 -2.2138 97° East 462 532 37,400  Descending FlightAware UK
03:43AM 51.5721 -2.1712 97° East 532 612 39,000  Climbing FlightAware ADS-B
03:43AM 51.5432 -2.1200 97° East 462 532 37,400  Descending FlightAware UK
03:43AM 51.5631 -2.0524 97° East 532 612 39,000  Climbing FlightAware ADS-B
03:43AM 51.5347 -2.0018 97° East 464 534 37,400  Descending FlightAware UK
03:44AM 51.5540 -1.9319 97° East 532 612 39,000 2,040 Climbing FlightAware ADS-B
03:44AM 51.5446 -1.8100 97° East 533 613 39,000 -1,920 Level FlightAware ADS-B
03:44AM 51.5151 -1.7427 97° East 462 532 37,400  Descending FlightAware UK
03:45AM 51.5351 -1.6885 97° East 533 613 39,000 2,280 Climbing FlightAware ADS-B
03:45AM 51.5259 -1.5709 97° East 534 615 39,000 -2,040 Level FlightAware ADS-B
03:45AM 51.4969 -1.5072 97° East 462 532 37,400  Descending FlightAware UK
03:46AM 51.5162 -1.4525 97° East 535 616 39,000  Climbing FlightAware ADS-B
03:46AM 51.4877 -1.3892 97° East 460 529 37,400  Descending FlightAware UK
03:46AM 51.5067 -1.3330 97° East 536 617 39,000  Climbing FlightAware ADS-B
03:46AM 51.4780 -1.2703 97° East 462 532 37,400  Descending FlightAware UK
03:47AM 51.4967 -1.2133 97° East 537 618 39,000  Climbing FlightAware ADS-B
03:47AM 51.4685 -1.1513 97° East 462 532 37,400  Descending FlightAware UK
03:47AM 51.4860 -1.0842 97° East 537 618 39,000  Climbing FlightAware ADS-B
03:48AM 51.4568 -1.0093 97° East 464 534 37,400  Descending FlightAware UK
03:48AM 51.4758 -0.9639 97° East 537 618 39,000  Climbing FlightAware ADS-B
03:48AM 51.4472 -0.8911 97° East 462 532 37,400  Descending FlightAware UK
03:48AM 51.4670 -0.8560 97° East 536 617 39,000 6,840 Climbing FlightAware
03:48AM 51.4646 -0.8335 100° East 536 617 39,000 -4,620 Level FlightAware ADS-B
03:49AM 51.4371 -0.7724 100° East 462 532 37,400  Descending FlightAware UK
03:49AM 51.4541 -0.7133 100° East 536 617 39,000 2,160 Climbing FlightAware ADS-B
03:49AM 51.4435 -0.5916 98° East 537 618 39,000 -2,100 Level FlightAware ADS-B
03:50AM 51.4167 -0.5357 98° East 464 534 37,400  Descending FlightAware UK
03:50AM 51.4328 -0.4707 98° East 537 618 39,000  Climbing FlightAware ADS-B
03:50AM 51.4045 -0.3939 98° East 464 534 37,400  Descending FlightAware UK
03:50AM 51.4213 -0.3433 98° East 538 619 39,000 2,280 Climbing FlightAware ADS-B
03:51AM 51.4102 -0.2225 98° East 538 619 39,000 -2,040 Level FlightAware ADS-B
03:51AM 51.3833 -0.1571 98° East 466 536 37,400  Descending FlightAware UK
03:51AM 51.3993 -0.1039 98° East 537 618 39,000  Climbing FlightAware ADS-B
03:52AM 51.3704 -0.0150 98° East 466 536 37,400  Descending FlightAware UK
03:52AM 51.3879 0.0182 98° East 536 617 39,000 2,520 Climbing FlightAware ADS-B
03:52AM 51.3769 0.1354 99° East 535 616 39,000  Level FlightAware ADS-B
03:53AM 51.3656 0.2541 99° East 534 615 39,000 -2,100 Level FlightAware ADS-B
03:53AM 51.3399 0.3144 99° East 458 527 37,400  Descending FlightAware UK
03:53AM 51.3533 0.3793 99° East 534 615 39,000 2,040 Climbing FlightAware ADS-B
03:54AM 51.3419 0.4978 99° East 534 615 39,000 -1,920 Level FlightAware ADS-B
03:54AM 51.3151 0.5728 99° East 466 536 37,400  Descending FlightAware UK
03:54AM 51.3300 0.6175 99° East 533 613 39,000  Climbing FlightAware ADS-B
03:55AM 51.3038 0.6895 99° East 464 534 37,400  Descending FlightAware UK
03:55AM 51.3180 0.7376 99° East 533 613 39,000  Climbing FlightAware ADS-B
03:55AM 51.2922 0.8068 99° East 466 536 37,400  Descending FlightAware UK
03:55AM 51.3062 0.8553 99° East 532 612 39,000  Climbing FlightAware ADS-B
03:56AM 51.2807 0.9231 99° East 462 532 37,400  Descending FlightAware UK
03:56AM 51.2940 0.9757 99° East 530 610 39,000  Climbing FlightAware ADS-B
03:56AM 51.2668 1.0621 99° East 462 532 37,400  Descending FlightAware UK
03:56AM 51.2819 1.0926 99° East 529 609 39,000  Climbing FlightAware ADS-B
03:57AM 51.2574 1.1545 99° East 464 534 37,400  Descending FlightAware UK
03:57AM 51.2665 1.2399 99° East 528 608 39,000 1,680 Climbing FlightAware ADS-B
03:58AM 51.2522 1.3753 100° East 526 605 39,000 -1,740 Level FlightAware ADS-B
03:58AM 51.2263 1.4545 100° East 462 532 37,400 -1,920 Descending FlightAware UK
03:59AM 51.2099 1.5677 103° East 462 532 37,400 2,520 Level FlightAware UK
03:59AM 51.2250 1.5850 103° East 522 601 39,000  Climbing FlightAware
03:59AM 51.1931 1.6801 103° East 460 529 37,400  Descending FlightAware UK
03:59AM 51.2020 1.7380 103° East 521 600 39,000  Climbing FlightAware
04:00AM 51.1729 1.8146 103° East 458 527 37,400 -2,700 Descending FlightAware UK
04:00AM 51.1631 1.8819 103° East 460 529 37,400 3,540 Level FlightAware UK
04:00AM 51.1770 1.9020 103° East 520 598 39,000  Climbing FlightAware
04:00AM 51.1500 1.9723 103° East 458 527 37,400 -2,940 Descending FlightAware UK
04:01AM 51.1403 2.0394 103° East 456 525 37,400 3,840 Level FlightAware UK
04:01AM 51.1550 2.0540 103° East 519 597 39,000  Climbing FlightAware
04:01AM 51.1197 2.1738 103° East 458 527 37,400  Descending FlightAware UK
04:02AM 51.1290 2.2150 103° East 519 597 39,000 2,820 Climbing FlightAware
04:02AM 51.1156 2.2997 104° East 519 597 39,000  Level FlightAware ADS-B
04:02AM 51.0965 2.4187 104° East 520 598 39,000 -1,920 Level FlightAware ADS-B
04:03AM 51.0700 2.4846 104° East 458 527 37,400  Descending FlightAware UK
04:03AM 51.0763 2.5442 104° East 519 597 39,000  Climbing FlightAware ADS-B
04:03AM 51.0487 2.6178 104° East 456 525 37,400  Descending FlightAware UK
04:04AM 51.0540 2.6840 104° East 519 597 39,000 1,620 Climbing FlightAware
04:04AM 51.0291 2.8349 105° East 522 601 39,000 -1,500 Level FlightAware ADS-B
04:05AM 50.9982 2.9285 105° East 452 520 37,400 -180 Descending FlightAware UK
04:05AM 51.0040 2.9900 105° East 525 604 38,900 -1,020 Climbing FlightAware
04:05AM 50.9760 3.0621 105° East 466 536 36,800 -1,980 Descending FlightAware UK
04:06AM 50.9790 3.1370 105° East 525 604 37,600 -2,040 Climbing FlightAware
04:06AM 50.9422 3.2647 105° East 456 525 35,000 -2,100 Descending FlightAware UK
04:06AM 50.9560 3.2720 105° East 518 596 36,400 -2,040 Climbing FlightAware
04:07AM 50.9273 3.3524 105° East 446 513 34,200 -4,200 Descending FlightAware UK
04:07AM 50.9128 3.4398 105° East 442 509 33,500 1,500 Descending FlightAware UK
04:07AM 50.9260 3.4530 105° East 512 589 35,000 -300 Climbing FlightAware
04:07AM 50.8982 3.5269 105° East 446 513 33,400  Descending FlightAware UK
04:08AM 50.9040 3.5830 105° East 524 603 35,000  Climbing FlightAware
04:08AM 50.8752 3.6601 105° East 460 529 33,400  Descending FlightAware UK
04:09AM 50.8710 3.7690 105° East 530 610 35,000 1,260 Climbing FlightAware
04:09AM 50.8460 3.9180 105° East 531 611 35,000  Level FlightAware
04:10AM 50.8190 4.0680 106° East 531 611 35,000 -1,680 Level FlightAware
04:10AM 50.7891 4.1536 106° East 464 534 33,400 -2,640 Descending FlightAware UK
04:10AM 50.7773 4.2209 106° East 466 536 33,400 3,660 Level FlightAware UK
04:11AM 50.7900 4.2320 106° East 532 612 35,000  Climbing FlightAware
04:11AM 50.7612 4.3115 106° East 466 536 33,400 -2,880 Descending FlightAware UK
04:11AM 50.7495 4.3790 105° East 466 536 33,400 3,960 Level FlightAware UK
04:11AM 50.7650 4.3760 105° East 532 612 35,000  Climbing FlightAware
04:12AM 50.7210 4.5359 105° East 468 539 33,400  Descending FlightAware UK
04:12AM 50.7340 4.5470 105° East 533 613 35,000  Climbing FlightAware
04:12AM 50.6961 4.6700 105° East 466 536 33,400  Descending FlightAware UK
04:13AM 50.7060 4.7040 105° East 532 612 35,000 1,800 Climbing FlightAware
04:13AM 50.6800 4.8490 106° East 531 611 35,000  Level FlightAware
04:14AM 50.6480 5.0220 106° East 530 610 35,000  Level FlightAware
04:15AM 50.6250 5.1440 107° East 528 608 35,000  Level FlightAware
04:15AM 50.5940 5.3130 106° East 527 606 35,000  Level FlightAware
04:16AM 50.5530 5.5290 107° East 523 602 35,000 -420 Level FlightAware
04:17AM 50.5280 5.6630 106° East 510 587 34,300 -2,220 Descending FlightAware
04:18AM 50.4960 5.8310 107° East 518 596 31,900 -3,300 Descending FlightAware
04:18AM 50.4710 5.9640 106° East 521 600 29,900 -2,880 Descending FlightAware
04:19AM 50.4400 6.1230 107° East 506 582 28,100 -2,280 Descending FlightAware
04:20AM 50.4110 6.2740 107° East 506 582 26,500 -1,560 Descending FlightAware
04:21AM 50.3840 6.4140 107° East 491 565 25,900 -900 Descending FlightAware
04:21AM 50.3590 6.5490 106° East 474 545 25,300 -1,680 Descending FlightAware
04:22AM 50.3300 6.6940 107° East 460 529 23,600 -2,400 Descending FlightAware
04:23AM 50.3060 6.8200 107° East 457 526 21,900 -2,640 Descending FlightAware
04:23AM 50.2790 6.9540 107° East 458 527 19,900 -2,880 Descending FlightAware
04:24AM 50.2490 7.1110 107° East 446 513 17,400 -3,000 Descending FlightAware
04:25AM 50.2220 7.2450 107° East 433 498 15,200 -3,000 Descending FlightAware
04:26AM 50.2010 7.3500 107° East 425 489 13,400 -600 Descending FlightAware
04:28AM 50.1647 7.7351 104° East  Level FlightAware Approximate
04:29AM 50.1332 7.9337 117° Southeast  Level FlightAware Approximate
04:30AM 50.0927 8.1272 104° East  Level FlightAware Approximate
04:31AM 50.0653 8.3265 103° East  Level FlightAware Approximate
04:32AM 50.0279 8.5217 111° Southeast  Level FlightAware Approximate
04:33AM 50.0264 8.5431 111° Southeast  Level Estimated
04:34AM 50.0264 8.5431 111° Southeast  Level Estimated
04:35AM 50.0264 8.5431 111° Southeast  Level Estimated
04:36AM 50.0264 8.5431 111° Southeast  Level Estimated
04:37AM 50.0264 8.5431 111° Southeast  Level Estimated
04:38AM 50.0264 8.5431 111° Southeast  Level Estimated
04:39AM 50.0264 8.5431 111° Southeast  Level Estimated
04:40AM 50.0264 8.5431 111° Southeast  Level Estimated
04:41AM 50.0264 8.5431 111° Southeast  Level Estimated
04:42AM 50.0264 8.5431 111° Southeast  Level Estimated
04:43AM 50.0264 8.5431 111° Southeast  Level Estimated
04:44AM 50.0264 8.5431 111° Southeast  Level Estimated
04:44AM 50.1880 9.0180 111° Southeast 221 254 5,200  Level FlightAware
04:45AM 50.1660 8.9240 250° West 219 252 4,700 -480 Descending FlightAware
04:47AM 50.0435 8.5896 240° Southwest  Level Estimated
04:48AM 50.0264 8.5431 240° Southwest  Level Estimated
04:49AM 50.0264 8.5431 73° East  Level Estimated
04:50AM 50.0264 8.5431 73° East  Level Estimated
04:51AM 50.0264 8.5431 73° East  Level Estimated
04:52AM 50.0264 8.5431 73° East  Level Estimated